createdAt,value
2018-08-17T00:01:21.006Z,57.85
2018-08-17T00:03:49.805Z,57.50
2018-08-17T00:06:18.616Z,58.15
2018-08-17T00:08:47.538Z,58.45
2018-08-17T00:11:16.788Z,58.73
2018-08-17T00:13:45.853Z,58.92
2018-08-17T00:16:14.672Z,57.98
2018-08-17T00:18:43.533Z,58.01
2018-08-17T00:21:12.425Z,57.68
2018-08-17T00:23:41.293Z,57.64
2018-08-17T00:26:10.454Z,57.82
2018-08-17T00:28:39.246Z,58.55
2018-08-17T00:31:08.051Z,57.78
2018-08-17T00:33:36.828Z,57.60
2018-08-17T00:36:05.758Z,57.70
2018-08-17T00:38:34.650Z,58.34
2018-08-17T00:41:03.533Z,57.89
2018-08-17T00:43:32.315Z,58.26
2018-08-17T00:46:01.502Z,57.69
2018-08-17T00:48:30.335Z,57.95
2018-08-17T00:50:59.108Z,58.39
2018-08-17T00:53:27.964Z,58.72
2018-08-17T00:55:56.784Z,59.21
2018-08-17T00:58:25.680Z,59.43
2018-08-17T01:00:54.486Z,59.69
2018-08-17T01:03:23.364Z,59.92
2018-08-17T01:05:52.177Z,59.70
2018-08-17T01:08:21.026Z,60.34
2018-08-17T01:10:50.123Z,59.69
2018-08-17T01:13:19.021Z,59.88
2018-08-17T01:15:47.944Z,60.42
2018-08-17T01:18:16.887Z,60.28
2018-08-17T01:20:45.804Z,60.97
2018-08-17T01:23:14.650Z,60.93
2018-08-17T01:25:43.488Z,60.32
2018-08-17T01:28:12.278Z,60.42
2018-08-17T01:30:41.269Z,61.65
2018-08-17T01:33:10.567Z,60.85
2018-08-17T01:35:39.399Z,61.48
2018-08-17T01:38:08.247Z,62.21
2018-08-17T01:40:37.026Z,62.03
2018-08-17T01:43:06.646Z,61.67
2018-08-17T01:45:35.521Z,61.93
2018-08-17T01:48:04.343Z,62.79
2018-08-17T01:50:33.238Z,62.13
2018-08-17T01:53:02.105Z,61.82
2018-08-17T01:55:30.916Z,62.40
2018-08-17T01:57:59.690Z,62.17
2018-08-17T02:00:28.511Z,60.74
2018-08-17T02:02:57.291Z,61.62
2018-08-17T02:05:26.525Z,60.60
2018-08-17T02:07:55.338Z,60.72
2018-08-17T02:10:24.249Z,61.01
2018-08-17T02:12:53.034Z,61.29
2018-08-17T02:15:21.938Z,61.31
2018-08-17T02:17:50.746Z,61.98
2018-08-17T02:20:19.553Z,61.97
2018-08-17T02:22:48.344Z,61.46
2018-08-17T02:25:17.184Z,61.32
2018-08-17T02:27:45.962Z,62.03
2018-08-17T02:30:14.771Z,61.80
2018-08-17T02:32:43.536Z,61.22
2018-08-17T02:35:12.340Z,60.88
2018-08-17T02:37:41.150Z,60.81
2018-08-17T02:40:10.359Z,60.23
2018-08-17T02:42:39.144Z,60.29
2018-08-17T02:45:08.004Z,61.06
2018-08-17T02:47:36.858Z,60.23
2018-08-17T02:50:06.503Z,60.04
2018-08-17T02:52:35.287Z,61.11
2018-08-17T02:55:04.303Z,60.27
2018-08-17T02:57:33.103Z,60.83
2018-08-17T03:00:01.892Z,60.85
2018-08-17T03:02:30.659Z,61.29
2018-08-17T03:04:59.504Z,60.65
2018-08-17T03:07:28.265Z,61.30
2018-08-17T03:09:57.124Z,60.67
2018-08-17T03:12:26.127Z,61.03
2018-08-17T03:14:55.031Z,61.31
2018-08-17T03:17:24.039Z,61.25
2018-08-17T03:19:53.002Z,61.72
2018-08-17T03:22:21.973Z,61.30
2018-08-17T03:24:50.914Z,61.93
2018-08-17T03:27:19.853Z,61.01
2018-08-17T03:29:48.766Z,61.50
2018-08-17T03:32:17.622Z,61.67
2018-08-17T03:34:51.855Z,61.10
2018-08-17T03:37:21.395Z,61.31
2018-08-17T03:39:50.533Z,62.18
2018-08-17T03:42:19.430Z,62.01
2018-08-17T03:44:48.261Z,61.81
2018-08-17T03:47:17.164Z,62.50
2018-08-17T03:49:45.948Z,62.77
2018-08-17T03:52:14.837Z,62.40
2018-08-17T03:54:43.647Z,61.86
2018-08-17T03:57:12.443Z,62.07
2018-08-17T03:59:41.403Z,62.14
2018-08-17T04:02:10.211Z,62.70
2018-08-17T04:04:39.084Z,62.02
2018-08-17T04:07:07.870Z,62.03
2018-08-17T04:09:36.665Z,61.98
2018-08-17T04:12:05.559Z,61.96
2018-08-17T04:14:34.328Z,61.90
2018-08-17T04:17:03.953Z,61.60
2018-08-17T04:19:32.762Z,61.65
2018-08-17T04:22:01.606Z,60.88
2018-08-17T04:24:30.473Z,60.58
2018-08-17T04:26:59.293Z,59.43
2018-08-17T04:29:28.070Z,58.50
2018-08-17T04:31:57.830Z,58.96
2018-08-17T04:34:26.624Z,58.15
2018-08-17T04:36:55.386Z,58.71
2018-08-17T04:39:24.179Z,57.99
2018-08-17T04:41:53.054Z,58.74
2018-08-17T04:44:21.965Z,58.98
2018-08-17T04:46:50.774Z,58.74
2018-08-17T04:49:19.839Z,58.84
2018-08-17T04:51:48.759Z,58.52
2018-08-17T04:54:17.557Z,58.70
2018-08-17T04:56:46.403Z,58.63
2018-08-17T04:59:15.257Z,58.37
2018-08-17T05:01:44.044Z,59.02
2018-08-17T05:04:12.870Z,58.40
2018-08-17T05:06:41.703Z,59.80
2018-08-17T05:09:10.501Z,59.68
2018-08-17T05:11:39.290Z,58.61
2018-08-17T05:14:08.150Z,58.91
2018-08-17T05:16:36.997Z,59.76
2018-08-17T05:19:05.994Z,59.73
2018-08-17T05:21:34.891Z,59.59
2018-08-17T05:24:03.923Z,59.12
2018-08-17T05:26:32.742Z,58.86
2018-08-17T05:29:01.538Z,59.63
2018-08-17T05:31:30.336Z,59.70
2018-08-17T05:33:59.154Z,58.95
2018-08-17T05:36:28.006Z,58.86
2018-08-17T05:38:56.828Z,58.84
2018-08-17T05:41:26.010Z,58.22
2018-08-17T05:43:54.845Z,58.54
2018-08-17T05:46:23.755Z,57.40
2018-08-17T05:48:52.861Z,58.09
2018-08-17T05:51:21.674Z,56.69
2018-08-17T05:53:50.971Z,56.31
2018-08-17T05:56:19.750Z,56.17
2018-08-17T05:58:49.159Z,54.32
2018-08-17T06:01:18.686Z,53.42
2018-08-17T06:03:47.515Z,53.97
2018-08-17T06:06:16.335Z,52.00
2018-08-17T06:08:45.284Z,51.93
2018-08-17T06:11:14.323Z,51.99
2018-08-17T06:13:43.170Z,52.04
2018-08-17T06:16:12.026Z,52.07
2018-08-17T06:18:40.819Z,52.18
2018-08-17T06:21:09.751Z,52.92
2018-08-17T06:23:38.551Z,52.22
2018-08-17T06:26:07.503Z,52.13
2018-08-17T06:28:36.351Z,51.01
2018-08-17T06:31:05.401Z,51.70
2018-08-17T06:33:34.228Z,51.52
2018-08-17T06:36:03.150Z,50.56
2018-08-17T06:38:32.066Z,51.17
2018-08-17T06:41:01.098Z,50.50
2018-08-17T06:43:30.017Z,49.74
2018-08-17T06:45:58.831Z,49.27
2018-08-17T06:48:27.712Z,49.25
2018-08-17T06:50:56.602Z,49.70
2018-08-17T06:53:25.496Z,49.52
2018-08-17T06:55:54.256Z,48.48
2018-08-17T06:58:23.048Z,48.59
2018-08-17T07:00:52.330Z,47.58
2018-08-17T07:03:21.742Z,48.32
2018-08-17T07:05:50.981Z,47.61
2018-08-17T07:08:19.803Z,47.28
2018-08-17T07:10:48.979Z,48.07
2018-08-17T07:13:17.864Z,46.78
2018-08-17T07:15:46.779Z,47.40
2018-08-17T07:18:15.576Z,47.27
2018-08-17T07:20:44.433Z,46.63
2018-08-17T07:23:13.309Z,45.77
2018-08-17T07:25:42.408Z,45.04
2018-08-17T07:28:11.338Z,45.30
2018-08-17T07:30:40.362Z,45.84
2018-08-17T07:33:09.425Z,47.16
2018-08-17T07:35:43.213Z,45.45
2018-08-17T07:38:12.142Z,46.61
2018-08-17T07:40:41.186Z,45.59
2018-08-17T07:43:10.000Z,46.07
2018-08-17T07:45:39.027Z,45.60
2018-08-17T07:48:07.990Z,45.05
2018-08-17T07:50:36.942Z,46.15
2018-08-17T07:53:05.732Z,45.82
2018-08-17T07:55:34.931Z,44.70
2018-08-17T07:58:03.815Z,44.65
2018-08-17T08:00:32.630Z,45.10
2018-08-17T08:03:01.471Z,44.65
2018-08-17T08:05:30.293Z,45.22
2018-08-17T08:07:59.090Z,44.75
2018-08-17T08:10:27.943Z,44.03
2018-08-17T08:12:56.731Z,43.48
2018-08-17T08:15:25.636Z,42.70
2018-08-17T08:17:54.436Z,42.72
2018-08-17T08:20:30.722Z,42.73
2018-08-17T08:23:10.488Z,43.36
2018-08-17T08:25:39.690Z,43.04
2018-08-17T08:28:08.532Z,43.26
2018-08-17T08:30:37.322Z,43.13
2018-08-17T08:33:06.247Z,43.09
2018-08-17T08:35:35.070Z,44.05
2018-08-17T08:38:03.980Z,42.85
2018-08-17T08:40:32.907Z,42.99
2018-08-17T08:43:01.781Z,43.77
2018-08-17T08:45:30.751Z,43.60
2018-08-17T08:47:59.821Z,43.63
2018-08-17T08:50:28.668Z,42.79
2018-08-17T08:52:57.592Z,42.04
2018-08-17T08:55:26.388Z,42.81
2018-08-17T08:57:55.239Z,42.62
2018-08-17T09:00:24.049Z,42.27
2018-08-17T09:02:52.863Z,41.58
2018-08-17T09:05:21.695Z,41.84
2018-08-17T09:07:50.604Z,42.16
2018-08-17T09:10:19.431Z,43.56
2018-08-17T09:12:48.919Z,42.35
2018-08-17T09:15:17.771Z,41.83
2018-08-17T09:17:46.579Z,41.94
2018-08-17T09:20:16.569Z,40.95
2018-08-17T09:22:45.584Z,42.25
2018-08-17T09:25:14.408Z,41.35
2018-08-17T09:27:43.282Z,42.09
2018-08-17T09:30:13.699Z,41.54
2018-08-17T09:32:42.708Z,41.08
2018-08-17T09:35:12.715Z,40.92
2018-08-17T09:37:41.587Z,40.91
2018-08-17T09:40:11.378Z,39.91
2018-08-17T09:42:40.204Z,39.77
2018-08-17T09:45:10.966Z,39.31
2018-08-17T09:47:39.803Z,40.14
2018-08-17T09:50:11.203Z,40.35
2018-08-17T09:52:40.248Z,40.14
2018-08-17T09:55:09.140Z,39.16
2018-08-17T09:57:37.984Z,39.51
2018-08-17T10:00:08.893Z,38.96
2018-08-17T10:02:42.918Z,38.84
2018-08-17T10:05:17.125Z,39.34
2018-08-17T10:07:51.314Z,39.70
2018-08-17T10:10:22.140Z,39.58
2018-08-17T10:12:51.817Z,38.92
2018-08-17T10:15:22.031Z,38.31
2018-08-17T10:17:50.873Z,37.26
2018-08-17T10:20:21.399Z,36.55
2018-08-17T10:22:50.195Z,34.43
2018-08-17T10:25:23.036Z,34.42
2018-08-17T10:27:53.264Z,31.55
2018-08-17T10:30:22.826Z,32.73
2018-08-17T10:32:53.686Z,29.61
2018-08-17T10:35:24.614Z,29.51
2018-08-17T10:37:58.153Z,30.40
2018-08-17T10:40:27.216Z,29.90
2018-08-17T10:42:56.232Z,30.43
2018-08-17T10:45:26.308Z,30.47
2018-08-17T10:47:55.761Z,30.69
2018-08-17T10:50:25.967Z,30.13
2018-08-17T10:52:56.626Z,32.42
2018-08-17T10:55:39.493Z,32.41
2018-08-17T10:58:10.047Z,33.45
2018-08-17T11:00:38.922Z,34.45
2018-08-17T11:03:07.808Z,37.07
2018-08-17T11:05:36.655Z,38.08
2018-08-17T11:08:05.527Z,36.88
2018-08-17T11:10:34.375Z,37.33
2018-08-17T11:13:03.389Z,37.35
2018-08-17T11:15:32.207Z,42.72
2018-08-17T11:18:01.327Z,42.39
2018-08-17T11:20:30.235Z,41.41
2018-08-17T11:22:59.140Z,36.99
2018-08-17T11:25:28.242Z,40.61
2018-08-17T11:27:57.143Z,42.86
2018-08-17T11:30:25.994Z,40.36
2018-08-17T11:32:55.255Z,44.34
2018-08-17T11:35:24.197Z,46.67
2018-08-17T11:37:53.032Z,43.86
2018-08-17T11:40:21.850Z,44.25
2018-08-17T11:42:51.403Z,44.10
2018-08-17T11:45:24.316Z,44.39
2018-08-17T11:47:53.814Z,45.38
2018-08-17T11:50:24.022Z,45.67
2018-08-17T11:52:53.740Z,46.00
2018-08-17T11:55:24.055Z,44.24
2018-08-17T11:57:53.046Z,45.90
2018-08-17T12:00:21.885Z,45.07
2018-08-17T12:02:50.698Z,45.29
2018-08-17T12:05:19.515Z,43.35
2018-08-17T12:07:48.732Z,44.66
2018-08-17T12:10:17.659Z,45.71
2018-08-17T12:12:47.032Z,45.23
2018-08-17T12:15:16.355Z,45.80
2018-08-17T12:17:45.183Z,45.85
2018-08-17T12:20:13.991Z,46.36
2018-08-17T12:22:42.827Z,45.92
2018-08-17T12:25:11.975Z,46.76
2018-08-17T12:27:46.866Z,46.42
2018-08-17T12:30:15.684Z,46.52
2018-08-17T12:32:44.489Z,45.97
2018-08-17T12:35:13.371Z,45.47
2018-08-17T12:37:42.303Z,45.91
2018-08-17T12:40:11.325Z,45.44
2018-08-17T12:42:40.292Z,45.77
2018-08-17T12:45:14.455Z,46.12
2018-08-17T12:47:43.286Z,46.34
2018-08-17T12:50:12.160Z,47.77
2018-08-17T12:52:40.957Z,46.86
2018-08-17T12:55:09.763Z,46.84
2018-08-17T12:57:42.004Z,47.61
2018-08-17T13:00:12.905Z,46.65
2018-08-17T13:02:41.675Z,47.51
2018-08-17T13:05:10.508Z,47.84
2018-08-17T13:07:39.325Z,44.01
2018-08-17T13:10:08.507Z,43.40
2018-08-17T13:12:37.299Z,39.22
2018-08-17T13:15:06.190Z,40.93
2018-08-17T13:17:40.388Z,40.90
2018-08-17T13:20:09.216Z,42.50
2018-08-17T13:22:38.015Z,42.38
2018-08-17T13:25:06.828Z,42.67
2018-08-17T13:27:35.663Z,42.33
2018-08-17T13:30:07.493Z,43.71
2018-08-17T13:32:36.320Z,43.88
2018-08-17T13:35:05.084Z,46.05
2018-08-17T13:37:33.891Z,47.31
2018-08-17T13:40:02.916Z,48.30
2018-08-17T13:42:31.859Z,48.54
2018-08-17T13:45:00.683Z,49.66
2018-08-17T13:47:29.501Z,50.03
2018-08-17T13:49:58.278Z,49.42
2018-08-17T13:52:27.045Z,49.10
2018-08-17T13:54:55.885Z,48.96
2018-08-17T13:57:24.644Z,49.25
2018-08-17T13:59:53.392Z,48.62
2018-08-17T14:02:22.165Z,47.88
2018-08-17T14:04:50.969Z,47.73
2018-08-17T14:07:19.813Z,46.96
2018-08-17T14:09:48.688Z,46.42
2018-08-17T14:12:23.858Z,45.83
2018-08-17T14:14:52.749Z,42.91
2018-08-17T14:17:21.586Z,40.57
2018-08-17T14:19:50.391Z,40.72
2018-08-17T14:22:19.289Z,40.12
2018-08-17T14:24:48.267Z,38.23
2018-08-17T14:27:17.120Z,38.32
2018-08-17T14:29:45.901Z,39.41
2018-08-17T14:32:14.741Z,39.11
2018-08-17T14:34:43.515Z,38.03
2018-08-17T14:37:12.392Z,37.35
2018-08-17T14:39:41.195Z,37.94
2018-08-17T14:42:09.972Z,38.59
2018-08-17T14:44:38.918Z,38.71
2018-08-17T14:47:07.764Z,39.49
2018-08-17T14:49:36.579Z,39.55
2018-08-17T14:52:05.745Z,39.79
2018-08-17T14:54:34.528Z,41.09
2018-08-17T14:57:03.369Z,43.10
2018-08-17T14:59:32.203Z,43.76
2018-08-17T15:02:00.999Z,43.41
2018-08-17T15:04:29.762Z,43.26
2018-08-17T15:06:58.543Z,42.05
2018-08-17T15:09:27.480Z,41.77
2018-08-17T15:11:56.295Z,42.80
2018-08-17T15:14:25.116Z,44.06
2018-08-17T15:16:53.934Z,43.82
2018-08-17T15:19:22.720Z,43.12
2018-08-17T15:21:51.487Z,43.82
2018-08-17T15:24:20.280Z,45.06
2018-08-17T15:26:49.072Z,45.66
2018-08-17T15:29:17.887Z,45.31
2018-08-17T15:31:46.670Z,45.64
2018-08-17T15:34:15.405Z,44.59
2018-08-17T15:36:44.271Z,45.63
2018-08-17T15:39:13.128Z,45.48
2018-08-17T15:41:44.503Z,46.25
2018-08-17T15:44:19.456Z,45.83
2018-08-17T15:46:48.270Z,47.59
2018-08-17T15:49:22.191Z,47.17
2018-08-17T15:51:51.006Z,46.50
2018-08-17T15:54:20.045Z,47.19
2018-08-17T15:56:48.869Z,47.45
2018-08-17T15:59:17.668Z,47.30
2018-08-17T16:01:46.604Z,47.15
2018-08-17T16:04:15.487Z,47.88
2018-08-17T16:06:44.403Z,46.91
2018-08-17T16:09:13.902Z,47.53
2018-08-17T16:11:43.055Z,47.31
2018-08-17T16:14:11.939Z,46.28
2018-08-17T16:16:40.810Z,45.21
2018-08-17T16:19:09.642Z,44.45
2018-08-17T16:21:38.468Z,44.32
2018-08-17T16:24:07.850Z,43.54
2018-08-17T16:26:36.696Z,43.51
2018-08-17T16:29:05.615Z,43.02
2018-08-17T16:31:40.846Z,43.01
2018-08-17T16:34:10.284Z,43.04
2018-08-17T16:36:41.277Z,41.73
2018-08-17T16:39:13.043Z,41.83
2018-08-17T16:41:42.242Z,41.16
2018-08-17T16:44:11.682Z,40.75
2018-08-17T16:46:41.913Z,41.60
2018-08-17T16:49:10.824Z,41.55
2018-08-17T16:51:39.873Z,41.75
2018-08-17T16:54:08.762Z,41.70
2018-08-17T16:56:37.765Z,41.56
2018-08-17T16:59:07.294Z,41.79
2018-08-17T17:01:36.118Z,41.69
2018-08-17T17:04:05.076Z,42.01
2018-08-17T17:06:33.900Z,42.81
2018-08-17T17:09:05.700Z,43.62
2018-08-17T17:11:35.075Z,46.20
2018-08-17T17:14:04.037Z,47.75
2018-08-17T17:16:45.512Z,48.59
2018-08-17T17:19:15.817Z,49.15
2018-08-17T17:21:46.159Z,49.69
2018-08-17T17:24:15.053Z,51.10
2018-08-17T17:26:44.725Z,50.60
2018-08-17T17:29:13.511Z,51.98
2018-08-17T17:31:43.301Z,52.15
2018-08-17T17:34:12.335Z,51.50
2018-08-17T17:36:41.158Z,52.24
2018-08-17T17:39:12.471Z,52.92
2018-08-17T17:41:41.972Z,52.44
2018-08-17T17:44:10.907Z,52.32
2018-08-17T17:46:40.674Z,52.98
2018-08-17T17:49:09.983Z,52.23
2018-08-17T17:51:38.854Z,52.34
2018-08-17T17:54:07.855Z,52.10
2018-08-17T17:56:36.694Z,52.76
2018-08-17T17:59:12.249Z,52.50
2018-08-17T18:01:41.041Z,52.82
2018-08-17T18:04:09.878Z,53.24
2018-08-17T18:06:38.646Z,52.43
2018-08-17T18:09:07.552Z,53.41
2018-08-17T18:11:38.078Z,53.41
2018-08-17T18:14:07.694Z,54.72
2018-08-17T18:16:36.539Z,54.08
2018-08-17T18:19:05.473Z,54.16
2018-08-17T18:21:34.703Z,54.36
2018-08-17T18:24:08.590Z,53.55
2018-08-17T18:26:37.829Z,54.39
2018-08-17T18:29:07.067Z,54.13
2018-08-17T18:31:35.865Z,54.75
2018-08-17T18:34:05.112Z,53.93
2018-08-17T18:36:34.003Z,53.11
2018-08-17T18:39:02.834Z,53.33
2018-08-17T18:41:31.651Z,52.69
2018-08-17T18:44:00.551Z,52.56
2018-08-17T18:46:29.385Z,53.57
2018-08-17T18:48:58.343Z,53.31
2018-08-17T18:51:27.217Z,53.42
2018-08-17T18:53:56.044Z,54.06
2018-08-17T18:56:24.882Z,55.06
2018-08-17T18:58:53.731Z,56.17
2018-08-17T19:01:22.884Z,55.61
2018-08-17T19:03:51.674Z,56.47
2018-08-17T19:06:20.446Z,56.90
2018-08-17T19:08:49.222Z,56.36
2018-08-17T19:11:18.096Z,56.40
2018-08-17T19:13:47.232Z,54.96
2018-08-17T19:16:16.453Z,56.29
2018-08-17T19:18:45.395Z,54.39
2018-08-17T19:21:15.113Z,54.77
2018-08-17T19:23:43.940Z,55.46
2018-08-17T19:26:12.849Z,55.89
2018-08-17T19:28:42.071Z,56.33
2018-08-17T19:31:10.863Z,56.55
2018-08-17T19:33:39.698Z,56.38
2018-08-17T19:36:08.509Z,57.20
2018-08-17T19:38:40.486Z,56.89
2018-08-17T19:41:09.654Z,57.80
2018-08-17T19:43:38.889Z,57.34
2018-08-17T19:46:07.879Z,57.62
2018-08-17T19:48:36.824Z,58.03
2018-08-17T19:51:10.897Z,58.46
2018-08-17T19:53:39.717Z,58.84
2018-08-17T19:56:08.519Z,58.15
2018-08-17T19:58:37.281Z,58.50
2018-08-17T20:01:06.424Z,58.99
2018-08-17T20:03:35.250Z,59.21
2018-08-17T20:06:04.097Z,59.47
2018-08-17T20:08:32.937Z,60.16
2018-08-17T20:11:01.770Z,60.48
2018-08-17T20:13:30.573Z,59.85
2018-08-17T20:15:59.448Z,60.17
2018-08-17T20:18:28.370Z,59.75
2018-08-17T20:20:57.243Z,59.15
2018-08-17T20:23:26.085Z,59.33
2018-08-17T20:25:55.149Z,59.49
2018-08-17T20:28:24.190Z,59.33
2018-08-17T20:30:52.979Z,59.42
2018-08-17T20:33:26.899Z,59.46
2018-08-17T20:35:55.999Z,59.49
2018-08-17T20:38:24.964Z,59.58
2018-08-17T20:40:58.212Z,59.88
2018-08-17T20:43:27.573Z,60.74
2018-08-17T20:45:56.369Z,60.42
2018-08-17T20:48:25.180Z,60.92
2018-08-17T20:50:53.998Z,60.67
2018-08-17T20:53:22.746Z,61.33
2018-08-17T20:55:51.518Z,61.71
2018-08-17T20:58:20.327Z,61.51
2018-08-17T21:00:49.233Z,60.90
2018-08-17T21:03:18.019Z,61.88
2018-08-17T21:05:46.778Z,62.10
2018-08-17T21:08:15.627Z,61.19
2018-08-17T21:10:44.486Z,61.45
2018-08-17T21:13:13.284Z,61.17
2018-08-17T21:15:42.160Z,62.10
2018-08-17T21:18:10.951Z,63.80
2018-08-17T21:20:39.834Z,63.84
2018-08-17T21:23:09.056Z,63.62
2018-08-17T21:25:37.815Z,64.62
2018-08-17T21:28:06.635Z,64.49
2018-08-17T21:30:35.464Z,65.16
2018-08-17T21:33:04.717Z,65.69
2018-08-17T21:35:33.512Z,64.99
2018-08-17T21:38:02.311Z,65.26
2018-08-17T21:40:31.294Z,66.07
2018-08-17T21:43:01.557Z,65.87
2018-08-17T21:45:30.771Z,65.16
2018-08-17T21:47:59.608Z,65.12
2018-08-17T21:50:28.460Z,66.09
2018-08-17T21:52:57.699Z,65.75
2018-08-17T21:55:26.460Z,65.29
2018-08-17T21:57:55.243Z,65.48
2018-08-17T22:00:31.741Z,65.63
2018-08-17T22:03:00.625Z,66.78
2018-08-17T22:05:33.530Z,66.61
2018-08-17T22:08:02.905Z,66.36
2018-08-17T22:10:32.446Z,66.48
2018-08-17T22:13:02.290Z,65.83
2018-08-17T22:15:31.625Z,65.93
2018-08-17T22:18:01.779Z,66.03
2018-08-17T22:20:30.643Z,66.01
2018-08-17T22:22:59.493Z,65.13
2018-08-17T22:25:28.424Z,65.09
2018-08-17T22:27:57.212Z,65.03
2018-08-17T22:30:27.143Z,64.79
2018-08-17T22:32:55.889Z,65.00
2018-08-17T22:35:25.108Z,65.26
2018-08-17T22:37:54.035Z,65.64
2018-08-17T22:40:22.845Z,64.63
2018-08-17T22:42:51.710Z,64.74
2018-08-17T22:45:20.492Z,64.35
2018-08-17T22:47:49.261Z,65.35
2018-08-17T22:50:18.061Z,65.29
2018-08-17T22:52:46.881Z,64.65
2018-08-17T22:55:15.723Z,65.53
2018-08-17T22:57:44.501Z,65.77
2018-08-17T23:00:25.103Z,66.25
2018-08-17T23:02:55.523Z,66.29
2018-08-17T23:05:26.154Z,66.34
2018-08-17T23:07:55.052Z,66.40
2018-08-17T23:10:25.406Z,66.36
2018-08-17T23:12:54.776Z,66.55
2018-08-17T23:15:23.659Z,66.94
2018-08-17T23:17:53.678Z,66.71
2018-08-17T23:20:27.595Z,66.61
2018-08-17T23:22:57.509Z,66.72
2018-08-17T23:25:26.446Z,67.05
2018-08-17T23:27:55.292Z,66.74
2018-08-17T23:30:24.074Z,67.41
2018-08-17T23:32:53.232Z,67.81
2018-08-17T23:35:22.104Z,67.45
2018-08-17T23:37:50.857Z,67.83
2018-08-17T23:40:19.736Z,67.51
2018-08-17T23:42:48.499Z,67.01
2018-08-17T23:45:18.333Z,66.96
2018-08-17T23:47:47.202Z,66.75
2018-08-17T23:50:16.853Z,67.52
2018-08-17T23:52:45.654Z,66.94
2018-08-17T23:55:16.567Z,67.57
2018-08-17T23:57:45.743Z,67.04
